Terminal Aerodrome Forecast
Issued by NWS Sioux Falls, SD

Home | Current Version | Previous Version | Graphics & Text | Print | Product List | Glossary Off
Versions: 1 2 3 4 5 6 7 8 9 10 11 12 13 14 15 16 17 18

000
FTUS43 KFSD 180520
TAFSUX
TAF
KSUX 180520Z 1806/1906 12006KT 6SM BR BKN200
      TEMPO 1806/1809 4SM BR
     FM180900 15013KT 5SM BR OVC200 WS012/18045KT
     FM181200 17016G24KT P6SM BKN250 WS012/19055KT
     FM181600 18020G30KT P6SM SCT250
     FM181900 19012KT P6SM FEW250
     FM182200 15006KT P6SM SCT035
     FM190300 35010KT P6SM OVC008=

USA.gov is the U.S. government's official web portal to all federal, state and local government web resources and services.